Terminal Aerodrome Forecast
Issued by NWS Goodland, KS

Home | Current Version | Previous Version | Text Only | Print | Product List | Glossary On
Versions: 1 2 3 4 5 6 7 8 9 10 11 12 13 14 15
307
FTUS43 KGLD 202341
TAFGLD
TAF
KGLD 202341Z 2100/2124 34008KT P6SM SKC
     FM210200 VRB04KT P6SM SKC
     FM210800 23008KT P6SM SKC
     FM211600 26009KT P6SM FEW250
     FM211800 29011KT P6SM SKC
     FM212100 VRB05KT P6SM FEW250=

USA.gov is the U.S. government's official web portal to all federal, state and local government web resources and services.